Gaylord, Minnesota
Current Conditions -  °F | °C
As of 6:34 PM on Friday 21 Nov 2014 (Local Time) from KGYL Reporting Station
Clear Clear  
Wind Chill: 21°   Ceiling: Unl
Heat Index: 30°   Visibility: 10mi
Dew Point: 25°   Wind: 9mph
Humidity: 82%   Direction: 180°S
Pressure: 29.93"   Gusts: NA
Location:  44.55°N, 94.22°W
Report Text: KGYL 220034Z AUTO 18008KT 10SM CLR M01/M04 A2993 RMK AO2 T10131040
Loading
Personal Weather Stations






























Interactive Weather Map New forecast layout! Learn more

10-Day Weather Forecast

Advertisements
Track Severe Weather on mobile